createdAt,value
2018-06-23T00:00:34.781Z,9.3
2018-06-23T00:01:34.773Z,9.27
2018-06-23T00:02:35.014Z,9.32
2018-06-23T00:03:35.003Z,9.16
2018-06-23T00:04:34.999Z,9.16
2018-06-23T00:05:34.984Z,9.16
2018-06-23T00:06:34.718Z,9.14
2018-06-23T00:07:34.706Z,9.09
2018-06-23T00:08:34.950Z,9.01
2018-06-23T00:09:34.693Z,9.03
2018-06-23T00:10:34.933Z,9.01
2018-06-23T00:11:34.923Z,9.01
2018-06-23T00:12:34.912Z,9.04
2018-06-23T00:13:34.657Z,9.03
2018-06-23T00:14:34.897Z,9.08
2018-06-23T00:15:34.886Z,9.16
2018-06-23T00:16:34.873Z,9.05
2018-06-23T00:17:34.864Z,9.14
2018-06-23T00:18:34.859Z,9.09
2018-06-23T00:19:34.843Z,9.16
2018-06-23T00:20:34.579Z,9.14
2018-06-23T00:21:34.821Z,9.03
2018-06-23T00:22:34.556Z,8.98
2018-06-23T00:23:34.546Z,9.17
2018-06-23T00:24:34.802Z,9.17
2018-06-23T00:25:34.524Z,9.08
2018-06-23T00:26:34.513Z,9.05
2018-06-23T00:27:34.503Z,8.98
2018-06-23T00:28:34.759Z,9.01
2018-06-23T00:29:34.747Z,9.11
2018-06-23T00:30:34.732Z,9
2018-06-23T00:31:34.205Z,9.01
2018-06-23T00:32:34.448Z,9.01
2018-06-23T00:33:34.186Z,9.04
2018-06-23T00:34:34.430Z,9
2018-06-23T00:35:34.673Z,9.05
2018-06-23T00:36:34.407Z,9.12
2018-06-23T00:37:34.659Z,9.14
2018-06-23T00:38:34.647Z,9.01
2018-06-23T00:39:34.637Z,9.05
2018-06-23T00:40:34.631Z,9
2018-06-23T00:41:34.359Z,9.03
2018-06-23T00:42:34.091Z,9.01
2018-06-23T00:43:34.595Z,9
2018-06-23T00:44:34.583Z,8.97
2018-06-23T00:45:34.577Z,9.01
2018-06-23T00:46:34.561Z,9.03
2018-06-23T00:47:34.556Z,9.05
2018-06-23T00:48:34.538Z,9.09
2018-06-23T00:49:34.532Z,9.03
2018-06-23T00:50:34.521Z,8.97
2018-06-23T00:51:34.249Z,9.09
2018-06-23T00:52:33.985Z,9.05
2018-06-23T00:53:34.497Z,9.03
2018-06-23T00:54:34.480Z,9.03
2018-06-23T00:55:34.470Z,9.03
2018-06-23T00:56:34.464Z,9.01
2018-06-23T00:57:34.192Z,9
2018-06-23T00:58:34.178Z,9.08
2018-06-23T00:59:34.433Z,8.97
2018-06-23T01:00:34.421Z,8.9
2018-06-23T01:01:34.403Z,8.92
2018-06-23T01:02:33.881Z,9.01
2018-06-23T01:03:34.387Z,8.8
2018-06-23T01:04:34.373Z,8.77
2018-06-23T01:05:33.853Z,8.87
2018-06-23T01:06:34.094Z,8.79
2018-06-23T01:07:34.341Z,8.74
2018-06-23T01:08:34.328Z,8.65
2018-06-23T01:09:34.319Z,8.65
2018-06-23T01:10:34.053Z,8.54
2018-06-23T01:11:34.052Z,8.53
2018-06-23T01:12:34.034Z,8.49
2018-06-23T01:13:33.764Z,8.47
2018-06-23T01:14:34.271Z,8.52
2018-06-23T01:15:34.253Z,8.42
2018-06-23T01:16:33.991Z,8.39
2018-06-23T01:17:34.246Z,8.29
2018-06-23T01:18:34.233Z,8.28
2018-06-23T01:19:34.004Z,8.17
2018-06-23T01:20:34.201Z,8.22
2018-06-23T01:21:34.197Z,8.22
2018-06-23T01:22:34.184Z,8.21
2018-06-23T01:23:33.914Z,8.17
2018-06-23T01:24:34.163Z,8.14
2018-06-23T01:25:34.152Z,8.14
2018-06-23T01:26:34.139Z,8.1
2018-06-23T01:27:34.130Z,8.11
2018-06-23T01:28:33.861Z,8.09
2018-06-23T01:29:34.110Z,8.04
2018-06-23T01:30:34.093Z,8.1
2018-06-23T01:31:33.825Z,8.06
2018-06-23T01:32:34.072Z,8.06
2018-06-23T01:33:34.059Z,8.13
2018-06-23T01:34:34.056Z,8.07
2018-06-23T01:35:34.041Z,8.17
2018-06-23T01:36:34.026Z,8.24
2018-06-23T01:37:33.765Z,8.16
2018-06-23T01:38:33.931Z,8.22
2018-06-23T01:39:34.007Z,8.21
2018-06-23T01:40:33.985Z,8.32
2018-06-23T01:41:33.972Z,8.28
2018-06-23T01:42:33.703Z,8.34
2018-06-23T01:43:33.951Z,8.28
2018-06-23T01:44:33.942Z,8.4
2018-06-23T01:45:33.673Z,8.42
2018-06-23T01:46:33.915Z,8.43
2018-06-23T01:47:33.909Z,8.47
2018-06-23T01:48:33.893Z,8.47
2018-06-23T01:49:33.630Z,8.5
2018-06-23T01:50:33.617Z,8.52
2018-06-23T01:51:33.608Z,8.61
2018-06-23T01:52:33.846Z,8.58
2018-06-23T01:53:33.844Z,8.62
2018-06-23T01:54:33.576Z,8.62
2018-06-23T01:55:33.824Z,8.64
2018-06-23T01:56:33.816Z,8.64
2018-06-23T01:57:33.850Z,8.67
2018-06-23T01:58:33.274Z,8.72
2018-06-23T01:59:33.806Z,8.76
2018-06-23T02:00:33.504Z,8.71
2018-06-23T02:01:33.756Z,8.69
2018-06-23T02:02:33.740Z,8.71
2018-06-23T02:03:33.472Z,8.79
2018-06-23T02:04:33.721Z,8.77
2018-06-23T02:05:33.452Z,8.87
2018-06-23T02:06:33.701Z,8.83
2018-06-23T02:07:33.690Z,8.8
2018-06-23T02:08:33.682Z,8.82
2018-06-23T02:09:33.668Z,8.92
2018-06-23T02:10:33.655Z,8.97
2018-06-23T02:11:33.642Z,8.95
2018-06-23T02:12:33.645Z,8.92
2018-06-23T02:13:33.365Z,8.97
2018-06-23T02:14:33.362Z,8.94
2018-06-23T02:15:33.601Z,8.92
2018-06-23T02:16:33.591Z,8.95
2018-06-23T02:17:33.588Z,8.89
2018-06-23T02:18:33.572Z,8.83
2018-06-23T02:19:33.592Z,8.97
2018-06-23T02:20:33.545Z,9.03
2018-06-23T02:21:33.276Z,9.01
2018-06-23T02:22:33.271Z,8.92
2018-06-23T02:23:33.515Z,8.95
2018-06-23T02:24:33.512Z,8.95
2018-06-23T02:25:33.493Z,8.87
2018-06-23T02:26:33.486Z,8.94
2018-06-23T02:27:33.214Z,8.97
2018-06-23T02:28:33.208Z,9
2018-06-23T02:29:33.446Z,8.94
2018-06-23T02:30:33.452Z,8.98
2018-06-23T02:31:33.433Z,8.94
2018-06-23T02:32:33.424Z,9
2018-06-23T02:33:33.414Z,8.95
2018-06-23T02:34:33.400Z,8.98
2018-06-23T02:35:33.390Z,8.98
2018-06-23T02:36:33.124Z,8.86
2018-06-23T02:37:33.367Z,8.97
2018-06-23T02:38:32.843Z,8.86
2018-06-23T02:39:33.094Z,8.95
2018-06-23T02:40:33.334Z,9
2018-06-23T02:41:33.064Z,8.98
2018-06-23T02:42:33.058Z,8.92
2018-06-23T02:43:33.304Z,8.89
2018-06-23T02:44:33.291Z,8.82
2018-06-23T02:45:33.279Z,8.86
2018-06-23T02:46:33.269Z,8.83
2018-06-23T02:47:33.262Z,8.76
2018-06-23T02:48:33.246Z,8.77
2018-06-23T02:49:33.241Z,8.74
2018-06-23T02:50:32.970Z,8.74
2018-06-23T02:51:33.224Z,8.69
2018-06-23T02:52:33.210Z,8.6
2018-06-23T02:53:32.947Z,8.54
2018-06-23T02:54:33.181Z,8.53
2018-06-23T02:55:33.170Z,8.47
2018-06-23T02:56:33.161Z,8.4
2018-06-23T02:57:32.899Z,8.32
2018-06-23T02:58:33.150Z,8.29
2018-06-23T02:59:32.872Z,8.34
2018-06-23T03:00:33.120Z,8.26
2018-06-23T03:01:32.851Z,8.29
2018-06-23T03:02:33.131Z,8.28
2018-06-23T03:03:33.087Z,8.22
2018-06-23T03:04:32.825Z,8.28
2018-06-23T03:05:33.065Z,8.09
2018-06-23T03:06:33.066Z,8.11
2018-06-23T03:07:32.786Z,8.14
2018-06-23T03:08:33.036Z,8.17
2018-06-23T03:09:33.017Z,8.21
2018-06-23T03:10:32.763Z,8.1
2018-06-23T03:11:32.750Z,8.13
2018-06-23T03:12:32.991Z,8.04
2018-06-23T03:13:32.725Z,8.03
2018-06-23T03:14:32.971Z,7.99
2018-06-23T03:15:32.702Z,8.06
2018-06-23T03:16:32.693Z,8.06
2018-06-23T03:17:32.673Z,8.04
2018-06-23T03:18:32.924Z,8.07
2018-06-23T03:19:32.399Z,8.03
2018-06-23T03:20:32.639Z,8.04
2018-06-23T03:21:32.372Z,8.1
2018-06-23T03:22:32.879Z,8.03
2018-06-23T03:23:32.860Z,8.16
2018-06-23T03:24:32.856Z,8.1
2018-06-23T03:25:32.851Z,8.09
2018-06-23T03:26:32.834Z,8.21
2018-06-23T03:27:32.564Z,8.25
2018-06-23T03:28:32.556Z,8.24
2018-06-23T03:29:32.800Z,8.22
2018-06-23T03:30:32.789Z,8.32
2018-06-23T03:31:32.527Z,8.22
2018-06-23T03:32:32.764Z,8.21
2018-06-23T03:33:32.495Z,8.22
2018-06-23T03:34:32.741Z,8.25
2018-06-23T03:35:32.733Z,8.31
2018-06-23T03:36:32.719Z,8.39
2018-06-23T03:37:32.708Z,8.32
2018-06-23T03:38:32.440Z,8.35
2018-06-23T03:39:32.426Z,8.43
2018-06-23T03:40:32.674Z,8.43
2018-06-23T03:41:32.669Z,8.42
2018-06-23T03:42:32.667Z,8.4
2018-06-23T03:43:32.640Z,8.4
2018-06-23T03:44:32.627Z,8.46
2018-06-23T03:45:32.620Z,8.49
2018-06-23T03:46:32.365Z,8.47
2018-06-23T03:47:32.599Z,8.47
2018-06-23T03:48:32.592Z,8.49
2018-06-23T03:49:32.572Z,8.5
2018-06-23T03:50:32.311Z,8.49
2018-06-23T03:51:32.295Z,8.53
2018-06-23T03:52:32.283Z,8.52
2018-06-23T03:53:32.530Z,8.47
2018-06-23T03:54:32.005Z,8.58
2018-06-23T03:55:32.514Z,8.64
2018-06-23T03:56:32.495Z,8.67
2018-06-23T03:57:32.235Z,8.67
2018-06-23T03:58:32.480Z,8.64
2018-06-23T03:59:32.208Z,8.64
2018-06-23T04:00:32.452Z,8.71
2018-06-23T04:01:32.185Z,8.69
2018-06-23T04:02:32.179Z,8.71
2018-06-23T04:03:32.417Z,8.74
2018-06-23T04:04:32.153Z,8.76
2018-06-23T04:05:32.143Z,8.87
2018-06-23T04:06:32.394Z,8.85
2018-06-23T04:07:32.120Z,8.9
2018-06-23T04:08:32.104Z,8.85
2018-06-23T04:09:32.353Z,8.86
2018-06-23T04:10:32.343Z,8.83
2018-06-23T04:11:32.459Z,8.83
2018-06-23T04:12:32.063Z,8.83
2018-06-23T04:13:32.317Z,8.85
2018-06-23T04:14:32.302Z,8.97
2018-06-23T04:15:32.033Z,9
2018-06-23T04:16:32.282Z,8.89
2018-06-23T04:17:32.267Z,9
2018-06-23T04:18:32.001Z,8.95
2018-06-23T04:19:32.253Z,8.95
2018-06-23T04:20:32.235Z,8.98
2018-06-23T04:21:32.233Z,8.87
2018-06-23T04:22:32.219Z,8.9
2018-06-23T04:23:32.203Z,8.98
2018-06-23T04:24:32.193Z,8.98
2018-06-23T04:25:32.180Z,9.04
2018-06-23T04:26:31.916Z,8.97
2018-06-23T04:27:32.161Z,8.95
2018-06-23T04:28:31.894Z,9.04
2018-06-23T04:29:32.141Z,9.04
2018-06-23T04:30:32.128Z,8.97
2018-06-23T04:31:32.122Z,8.95
2018-06-23T04:32:32.114Z,8.92
2018-06-23T04:33:32.099Z,9.03
2018-06-23T04:34:32.093Z,9.04
2018-06-23T04:35:32.075Z,9.01
2018-06-23T04:36:32.072Z,9.04
2018-06-23T04:37:32.066Z,9.08
2018-06-23T04:38:31.790Z,9.08
2018-06-23T04:39:32.033Z,9.04
2018-06-23T04:40:32.021Z,9.05
2018-06-23T04:41:32.017Z,9.05
2018-06-23T04:42:32.007Z,8.98
2018-06-23T04:43:31.995Z,9.03
2018-06-23T04:44:31.982Z,9.01
2018-06-23T04:45:31.973Z,9.12
2018-06-23T04:46:31.961Z,9.09
2018-06-23T04:47:31.953Z,9.04
2018-06-23T04:48:31.941Z,9.16
2018-06-23T04:49:31.925Z,9.14
2018-06-23T04:50:31.918Z,9.01
2018-06-23T04:51:31.914Z,9.04
2018-06-23T04:52:31.895Z,9.05
2018-06-23T04:53:31.371Z,9.12
2018-06-23T04:54:31.615Z,9.09
2018-06-23T04:55:31.609Z,9.11
2018-06-23T04:56:31.859Z,9.16
2018-06-23T04:57:31.852Z,9.16
2018-06-23T04:58:31.315Z,9.08
2018-06-23T04:59:31.694Z,9.08
2018-06-23T05:00:32.028Z,9.08
2018-06-23T05:01:31.806Z,9.12
2018-06-23T05:02:31.792Z,9.09
2018-06-23T05:03:31.522Z,9.14
2018-06-23T05:04:31.775Z,9.16
2018-06-23T05:05:31.762Z,9.2
2018-06-23T05:06:31.751Z,9.19
2018-06-23T05:07:31.743Z,9.21
2018-06-23T05:08:31.731Z,9.19
2018-06-23T05:09:31.727Z,9.2
2018-06-23T05:10:31.706Z,9.2
2018-06-23T05:11:31.442Z,9.2
2018-06-23T05:12:31.811Z,9.2
2018-06-23T05:13:31.679Z,9.14
2018-06-23T05:14:31.662Z,9.2
2018-06-23T05:15:31.666Z,9.2
2018-06-23T05:16:31.638Z,9.2
2018-06-23T05:17:31.629Z,9.21
2018-06-23T05:18:31.620Z,9.27
2018-06-23T05:19:31.619Z,9.35
2018-06-23T05:20:31.609Z,9.32
2018-06-23T05:21:31.589Z,9.32
2018-06-23T05:22:31.589Z,9.3
2018-06-23T05:23:31.580Z,9.26
2018-06-23T05:24:31.559Z,9.44
2018-06-23T05:25:31.547Z,9.47
2018-06-23T05:26:31.284Z,9.42
2018-06-23T05:27:31.278Z,9.44
2018-06-23T05:28:31.262Z,9.37
2018-06-23T05:29:31.529Z,9.38
2018-06-23T05:30:31.495Z,9.27
2018-06-23T05:31:31.230Z,9.34
2018-06-23T05:32:31.481Z,9.34
2018-06-23T05:33:31.471Z,9.32
2018-06-23T05:34:31.458Z,9.32
2018-06-23T05:35:31.448Z,9.44
2018-06-23T05:36:31.435Z,9.44
2018-06-23T05:37:31.171Z,9.48
2018-06-23T05:38:31.421Z,9.5
2018-06-23T05:39:31.406Z,9.47
2018-06-23T05:40:31.401Z,9.5
2018-06-23T05:41:31.388Z,9.52
2018-06-23T05:42:31.376Z,9.57
2018-06-23T05:43:31.372Z,9.59
2018-06-23T05:44:31.095Z,9.63
2018-06-23T05:45:31.087Z,9.74
2018-06-23T05:46:31.330Z,9.78
2018-06-23T05:47:30.805Z,9.78
2018-06-23T05:48:31.313Z,9.8
2018-06-23T05:49:31.042Z,9.85
2018-06-23T05:50:31.288Z,9.81
2018-06-23T05:51:31.030Z,9.95
2018-06-23T05:52:31.278Z,9.95
2018-06-23T05:53:31.258Z,10.05
2018-06-23T05:54:30.994Z,10.07
2018-06-23T05:55:30.987Z,10.07
2018-06-23T05:56:30.982Z,10.1
2018-06-23T05:57:30.705Z,10.2
2018-06-23T05:58:31.206Z,10.26
2018-06-23T05:59:31.201Z,10.33
2018-06-23T06:00:31.195Z,10.29
2018-06-23T06:01:31.185Z,10.28
2018-06-23T06:02:31.169Z,10.35
2018-06-23T06:03:31.163Z,10.36
2018-06-23T06:04:31.149Z,10.44
2018-06-23T06:05:30.884Z,10.38
2018-06-23T06:06:30.874Z,10.32
2018-06-23T06:07:31.126Z,10.41
2018-06-23T06:08:31.119Z,10.47
2018-06-23T06:09:31.111Z,10.52
2018-06-23T06:10:30.837Z,10.54
2018-06-23T06:11:31.087Z,10.59
2018-06-23T06:12:31.079Z,10.7
2018-06-23T06:13:30.811Z,10.63
2018-06-23T06:14:30.804Z,10.67
2018-06-23T06:15:30.793Z,10.69
2018-06-23T06:16:31.039Z,10.63
2018-06-23T06:17:31.033Z,10.59
2018-06-23T06:18:30.764Z,10.57
2018-06-23T06:19:30.755Z,10.51
2018-06-23T06:20:30.747Z,10.54
2018-06-23T06:21:30.733Z,10.7
2018-06-23T06:22:30.985Z,10.69
2018-06-23T06:23:30.975Z,10.79
2018-06-23T06:24:30.972Z,10.88
2018-06-23T06:25:30.961Z,11
2018-06-23T06:26:30.690Z,11.03
2018-06-23T06:27:30.937Z,11.1
2018-06-23T06:28:30.929Z,11.08
2018-06-23T06:29:30.798Z,11.1
2018-06-23T06:30:30.713Z,11.21
2018-06-23T06:31:30.902Z,11.3
2018-06-23T06:32:30.894Z,11.3
2018-06-23T06:33:30.884Z,11.34
2018-06-23T06:34:30.620Z,11.39
2018-06-23T06:35:30.615Z,11.46
2018-06-23T06:36:30.862Z,11.6
2018-06-23T06:37:30.846Z,11.63
2018-06-23T06:38:30.583Z,11.84
2018-06-23T06:39:30.833Z,12.03
2018-06-23T06:40:30.833Z,12
2018-06-23T06:41:30.304Z,12.15
2018-06-23T06:42:30.808Z,12.19
2018-06-23T06:43:30.543Z,12.22
2018-06-23T06:44:30.867Z,12.34
2018-06-23T06:45:30.267Z,12.31
2018-06-23T06:46:30.785Z,12.43
2018-06-23T06:47:30.768Z,12.45
2018-06-23T06:48:30.503Z,12.48
2018-06-23T06:49:30.496Z,12.61
2018-06-23T06:50:30.743Z,12.62
2018-06-23T06:51:30.481Z,12.69
2018-06-23T06:52:30.467Z,12.66
2018-06-23T06:53:30.464Z,12.65
2018-06-23T06:54:30.716Z,12.76
2018-06-23T06:55:30.450Z,12.7
2018-06-23T06:56:30.699Z,12.65
2018-06-23T06:57:30.436Z,12.65
2018-06-23T06:58:30.678Z,12.58
2018-06-23T06:59:30.417Z,12.63
2018-06-23T07:00:30.410Z,12.62
2018-06-23T07:01:30.662Z,12.7
2018-06-23T07:02:30.714Z,12.73
2018-06-23T07:03:30.443Z,12.76
2018-06-23T07:04:30.380Z,12.88
2018-06-23T07:05:30.380Z,12.94
2018-06-23T07:06:30.623Z,13.1
2018-06-23T07:07:30.614Z,13.2
2018-06-23T07:08:30.614Z,13.29
2018-06-23T07:09:30.599Z,13.32
2018-06-23T07:10:30.591Z,13.4
2018-06-23T07:11:30.597Z,13.37
2018-06-23T07:12:30.581Z,13.31
2018-06-23T07:13:30.312Z,13.36
2018-06-23T07:14:30.305Z,13.35
2018-06-23T07:15:30.653Z,13.25
2018-06-23T07:16:30.292Z,13.32
2018-06-23T07:17:30.599Z,13.31
2018-06-23T07:18:30.280Z,13.29
2018-06-23T07:19:30.540Z,13.37
2018-06-23T07:20:30.273Z,13.44
2018-06-23T07:21:30.514Z,13.6
2018-06-23T07:22:30.250Z,13.68
2018-06-23T07:23:30.661Z,13.72
2018-06-23T07:24:30.504Z,13.76
2018-06-23T07:25:30.489Z,13.97
2018-06-23T07:26:30.485Z,14.02
2018-06-23T07:27:30.220Z,14.12
2018-06-23T07:28:30.495Z,14.27
2018-06-23T07:29:30.461Z,14.66
2018-06-23T07:30:30.200Z,14.95
2018-06-23T07:31:30.460Z,15.1
2018-06-23T07:32:30.186Z,15.01
2018-06-23T07:33:29.924Z,15.12
2018-06-23T07:34:30.369Z,15.3
2018-06-23T07:35:30.172Z,15.95
2018-06-23T07:36:30.164Z,15.96
2018-06-23T07:37:29.900Z,15.77
2018-06-23T07:38:30.415Z,15.55
2018-06-23T07:39:30.145Z,15.35
2018-06-23T07:40:30.141Z,15.1
2018-06-23T07:41:30.402Z,15
2018-06-23T07:42:30.131Z,14.87
2018-06-23T07:43:30.385Z,14.66
2018-06-23T07:44:30.117Z,14.63
2018-06-23T07:45:30.114Z,14.71
2018-06-23T07:46:30.391Z,14.75
2018-06-23T07:47:30.107Z,14.82
2018-06-23T07:48:30.365Z,14.8
2018-06-23T07:49:30.097Z,14.87
2018-06-23T07:52:53.571Z,15.04
2018-06-23T07:53:53.569Z,15.04
2018-06-23T07:54:53.564Z,14.97
2018-06-23T07:55:53.560Z,14.71
2018-06-23T07:56:53.558Z,14.69
2018-06-23T07:57:53.550Z,14.63
2018-06-23T07:58:53.287Z,14.63
2018-06-23T07:59:53.542Z,14.66
2018-06-23T08:00:53.535Z,14.51
2018-06-23T08:01:53.274Z,14.51
2018-06-23T08:02:53.266Z,14.49
2018-06-23T08:03:53.264Z,14.46
2018-06-23T08:04:53.254Z,14.38
2018-06-23T08:05:53.504Z,14.28
2018-06-23T08:06:53.242Z,14.16
2018-06-23T08:07:53.499Z,14.08
2018-06-23T08:08:53.240Z,14.05
2018-06-23T08:09:53.497Z,13.88
2018-06-23T08:10:53.226Z,13.91
2018-06-23T08:11:53.424Z,13.87
2018-06-23T08:12:53.466Z,13.68
2018-06-23T08:13:53.466Z,13.42
2018-06-23T08:14:53.195Z,13.25
2018-06-23T08:15:53.457Z,13.11
2018-06-23T08:16:53.454Z,12.92
2018-06-23T08:17:53.447Z,12.96
2018-06-23T08:18:53.177Z,12.96
2018-06-23T08:19:53.436Z,12.94
2018-06-23T08:20:53.431Z,12.96
2018-06-23T08:21:53.158Z,12.98
2018-06-23T08:22:53.148Z,12.84
2018-06-23T08:23:53.403Z,12.76
2018-06-23T08:24:53.411Z,12.73
2018-06-23T08:25:53.133Z,12.63
2018-06-23T08:26:53.390Z,12.7
2018-06-23T08:27:53.394Z,12.69
2018-06-23T08:28:53.374Z,12.66
2018-06-23T08:29:53.114Z,12.71
2018-06-23T08:30:53.360Z,12.74
2018-06-23T08:31:53.492Z,12.96
2018-06-23T08:32:53.350Z,12.96
2018-06-23T08:33:53.083Z,13.13
2018-06-23T08:34:53.069Z,13.24
2018-06-23T08:35:53.408Z,13.25
2018-06-23T08:36:53.316Z,13.17
2018-06-23T08:37:53.179Z,13.17
2018-06-23T08:38:53.301Z,13.14
2018-06-23T08:39:53.298Z,13.27
2018-06-23T08:40:53.035Z,13.09
2018-06-23T08:41:53.280Z,13.1
2018-06-23T08:42:53.274Z,12.94
2018-06-23T08:43:53.019Z,12.94
2018-06-23T08:44:53.266Z,13.01
2018-06-23T08:45:53.260Z,12.92
2018-06-23T08:46:53.245Z,13.06
2018-06-23T08:47:53.238Z,12.95
2018-06-23T08:48:53.243Z,13.03
2018-06-23T08:49:53.229Z,13.14
2018-06-23T08:50:52.963Z,13.17
2018-06-23T08:51:53.216Z,13.28
2018-06-23T08:52:52.950Z,13.16
2018-06-23T08:53:53.204Z,13.25
2018-06-23T08:54:53.191Z,13.16
2018-06-23T08:55:52.932Z,13.13
2018-06-23T08:56:53.219Z,13.03
2018-06-23T08:57:52.917Z,13.01
2018-06-23T08:58:53.166Z,12.91
2018-06-23T08:59:53.154Z,12.84
2018-06-23T09:00:53.152Z,12.78
2018-06-23T09:01:53.324Z,12.76
2018-06-23T09:02:53.099Z,12.8
2018-06-23T09:03:52.879Z,12.74
2018-06-23T09:04:53.127Z,12.89
2018-06-23T09:05:53.114Z,12.91
2018-06-23T09:06:52.859Z,12.86
2018-06-23T09:07:53.109Z,12.88
2018-06-23T09:08:53.102Z,12.88
2018-06-23T09:09:53.103Z,12.89
2018-06-23T09:10:53.139Z,12.96
2018-06-23T09:11:53.078Z,12.84
2018-06-23T09:12:52.811Z,12.8
2018-06-23T09:13:52.806Z,12.62
2018-06-23T09:14:52.799Z,12.58
2018-06-23T09:15:53.051Z,12.56
2018-06-23T09:16:53.230Z,12.52
2018-06-23T09:17:52.521Z,12.4
2018-06-23T09:18:53.031Z,12.36
2018-06-23T09:19:52.765Z,12.19
2018-06-23T09:20:53.012Z,12.11
2018-06-23T09:21:53.007Z,11.98
2018-06-23T09:22:53.002Z,11.91
2018-06-23T09:23:52.992Z,11.81
2018-06-23T09:24:52.986Z,11.78
2018-06-23T09:25:53.107Z,11.79
2018-06-23T09:26:52.713Z,11.82
2018-06-23T09:27:52.957Z,11.76
2018-06-23T09:28:52.696Z,11.88
2018-06-23T09:29:52.938Z,11.88
2018-06-23T09:30:52.935Z,12.03
2018-06-23T09:31:52.928Z,12.01
2018-06-23T09:32:52.925Z,12.07
2018-06-23T09:33:52.657Z,11.98
2018-06-23T09:34:52.648Z,12.08
2018-06-23T09:35:52.910Z,12.03
2018-06-23T09:36:52.892Z,12.1
2018-06-23T09:37:52.627Z,12.13
2018-06-23T09:38:52.934Z,12.13
2018-06-23T09:39:52.862Z,12.13
2018-06-23T09:40:52.598Z,12.05
2018-06-23T09:41:52.861Z,12.04
2018-06-23T09:42:52.846Z,12.03
2018-06-23T09:43:52.586Z,11.91
2018-06-23T09:44:52.570Z,11.76
2018-06-23T09:45:53.011Z,11.82
2018-06-23T09:46:52.554Z,11.7
2018-06-23T09:47:52.543Z,11.78
2018-06-23T09:48:52.800Z,11.79
2018-06-23T09:49:52.786Z,11.67
2018-06-23T09:50:52.530Z,11.7
2018-06-23T09:51:52.520Z,11.67
2018-06-23T09:52:52.798Z,11.67
2018-06-23T09:53:52.752Z,11.64
2018-06-23T09:54:52.763Z,11.61
2018-06-23T09:55:52.883Z,11.63
2018-06-23T09:56:52.730Z,11.59
2018-06-23T09:57:52.738Z,11.46
2018-06-23T09:58:52.720Z,11.45
2018-06-23T09:59:52.451Z,11.43
2018-06-23T10:00:52.444Z,11.42
2018-06-23T10:01:52.689Z,11.31
2018-06-23T10:02:52.427Z,11.41
2018-06-23T10:03:52.418Z,11.46
2018-06-23T10:04:52.670Z,11.33
2018-06-23T10:05:52.407Z,11.39
2018-06-23T10:06:52.651Z,11.43
2018-06-23T10:07:52.644Z,11.48
2018-06-23T10:08:52.644Z,11.39
2018-06-23T10:09:52.632Z,11.3
2018-06-23T10:10:52.366Z,11.23
2018-06-23T10:11:52.359Z,11.26
2018-06-23T10:12:52.347Z,11.12
2018-06-23T10:13:52.595Z,11.21
2018-06-23T10:14:52.075Z,11.12
2018-06-23T10:15:52.585Z,11.21
2018-06-23T10:16:52.577Z,11.24
2018-06-23T10:17:52.564Z,11.31
2018-06-23T10:18:52.560Z,11.33
2018-06-23T10:19:52.550Z,11.3
2018-06-23T10:20:52.281Z,11.31
2018-06-23T10:21:52.533Z,11.26
2018-06-23T10:22:52.524Z,11.15
2018-06-23T10:23:52.515Z,11.12
2018-06-23T10:24:52.510Z,11.26
2018-06-23T10:25:52.497Z,11.31
2018-06-23T10:26:52.506Z,11.28
2018-06-23T10:27:52.227Z,11.27
2018-06-23T10:28:51.959Z,11.27
2018-06-23T10:29:52.200Z,11.34
2018-06-23T10:30:52.196Z,11.31
2018-06-23T10:31:52.449Z,11.35
2018-06-23T10:32:52.442Z,11.28
2018-06-23T10:33:52.425Z,11.38
2018-06-23T10:34:52.171Z,11.45
2018-06-23T10:35:52.415Z,11.43
2018-06-23T10:36:52.408Z,11.53
2018-06-23T10:37:52.396Z,11.6
2018-06-23T10:38:52.558Z,11.6
2018-06-23T10:39:52.118Z,11.59
2018-06-23T10:40:52.111Z,11.56
2018-06-23T10:41:52.374Z,11.49
2018-06-23T10:42:52.097Z,11.41
2018-06-23T10:43:52.078Z,11.31
2018-06-23T10:44:52.079Z,11.3
2018-06-23T10:45:52.326Z,11.34
2018-06-23T10:46:52.316Z,11.31
2018-06-23T10:47:52.056Z,11.21
2018-06-23T10:48:52.296Z,11.23
2018-06-23T10:49:52.289Z,11.23
2018-06-23T10:50:52.285Z,11.16
2018-06-23T10:51:52.026Z,11.15
2018-06-23T10:52:52.266Z,11.12
2018-06-23T10:53:52.254Z,11.16
2018-06-23T10:54:51.995Z,11.23
2018-06-23T10:55:51.984Z,11.06
2018-06-23T10:56:51.977Z,11.05
2018-06-23T10:57:51.752Z,10.97
2018-06-23T10:58:52.219Z,10.97
2018-06-23T10:59:52.209Z,10.87
2018-06-23T11:00:51.938Z,10.91
2018-06-23T11:01:51.930Z,10.87
2018-06-23T11:02:52.195Z,10.9
2018-06-23T11:03:52.167Z,10.97
2018-06-23T11:04:52.475Z,10.88
2018-06-23T11:05:51.641Z,10.95
2018-06-23T11:06:51.626Z,10.88
2018-06-23T11:07:52.127Z,10.88
2018-06-23T11:08:52.128Z,10.98
2018-06-23T11:09:52.116Z,11
2018-06-23T11:10:52.104Z,11.06
2018-06-23T11:11:52.091Z,10.97
2018-06-23T11:12:52.094Z,10.91
2018-06-23T11:13:51.823Z,10.9
2018-06-23T11:14:52.066Z,10.73
2018-06-23T11:15:52.061Z,10.75
2018-06-23T11:16:52.056Z,10.75
2018-06-23T11:17:51.788Z,10.67
2018-06-23T11:18:52.037Z,10.66
2018-06-23T11:19:52.033Z,10.67
2018-06-23T11:20:52.012Z,10.83
2018-06-23T11:21:51.749Z,10.73
2018-06-23T11:22:51.997Z,10.66
2018-06-23T11:23:51.727Z,10.8
2018-06-23T11:24:51.985Z,10.8
2018-06-23T11:25:51.968Z,10.76
2018-06-23T11:26:51.707Z,10.79
2018-06-23T11:27:51.949Z,10.66
2018-06-23T11:28:51.947Z,10.67
2018-06-23T11:29:51.678Z,10.69
2018-06-23T11:30:51.921Z,10.65
2018-06-23T11:31:51.657Z,10.67
2018-06-23T11:32:51.907Z,10.66
2018-06-23T11:33:51.897Z,10.7
2018-06-23T11:34:51.888Z,10.76
2018-06-23T11:35:51.615Z,10.69
2018-06-23T11:36:51.875Z,10.73
2018-06-23T11:37:51.862Z,10.83
2018-06-23T11:38:51.858Z,10.9
2018-06-23T11:39:51.600Z,11.03
2018-06-23T11:40:51.317Z,11.1
2018-06-23T11:41:51.309Z,11.12
2018-06-23T11:42:51.824Z,11.12
2018-06-23T11:43:51.806Z,11.13
2018-06-23T11:44:51.536Z,11.24
2018-06-23T11:45:51.845Z,11.26
2018-06-23T11:46:51.774Z,11.34
2018-06-23T11:47:51.769Z,11.26
2018-06-23T11:48:51.503Z,11.34
2018-06-23T11:49:51.755Z,11.3
2018-06-23T11:50:51.494Z,11.27
2018-06-23T11:51:51.473Z,11.2
2018-06-23T11:52:51.465Z,11.12
2018-06-23T11:53:51.202Z,11.16
2018-06-23T11:54:51.704Z,11.16
2018-06-23T11:55:51.437Z,11.16
2018-06-23T11:56:51.432Z,11.18
2018-06-23T11:57:51.677Z,11.15
2018-06-23T11:58:51.413Z,11.24
2018-06-23T11:59:51.406Z,11.24
2018-06-23T12:00:51.653Z,11.27
2018-06-23T12:01:51.444Z,11.26
2018-06-23T12:02:51.377Z,11.26
2018-06-23T12:03:51.620Z,11.35
2018-06-23T12:04:51.611Z,11.48
2018-06-23T12:05:51.606Z,11.38
2018-06-23T12:06:51.602Z,11.48
2018-06-23T12:07:51.598Z,11.46
2018-06-23T12:08:51.576Z,11.39
2018-06-23T12:09:51.566Z,11.52
2018-06-23T12:10:51.300Z,11.49
2018-06-23T12:11:51.552Z,11.52
2018-06-23T12:12:51.540Z,11.52
2018-06-23T12:13:51.537Z,11.51
2018-06-23T12:14:51.528Z,11.39
2018-06-23T12:15:51.518Z,11.52
2018-06-23T12:16:51.515Z,11.42
2018-06-23T12:18:50.974Z,11.33
2018-06-23T12:19:51.481Z,11.41
2018-06-23T12:20:51.471Z,11.52
2018-06-23T12:21:51.464Z,11.52
2018-06-23T12:22:51.458Z,11.56
2018-06-23T12:23:51.455Z,11.64
2018-06-23T12:24:51.438Z,11.7
2018-06-23T12:25:51.434Z,11.7
2018-06-23T12:26:51.162Z,11.57
2018-06-23T12:27:51.154Z,11.59
2018-06-23T12:28:51.405Z,11.56
2018-06-23T12:29:51.396Z,11.57
2018-06-23T12:30:51.130Z,11.53
2018-06-23T12:31:51.125Z,11.52
2018-06-23T12:32:51.373Z,11.59
2018-06-23T12:33:51.155Z,11.51
2018-06-23T12:34:51.368Z,11.63
2018-06-23T12:35:51.087Z,11.7
2018-06-23T12:36:51.073Z,11.67
2018-06-23T12:37:51.341Z,11.67
2018-06-23T12:38:51.313Z,11.64
2018-06-23T12:39:51.310Z,11.68
2018-06-23T12:40:51.297Z,11.75
2018-06-23T12:41:51.454Z,11.66
2018-06-23T12:42:51.282Z,11.59
2018-06-23T12:43:51.276Z,11.6
2018-06-23T12:44:51.264Z,11.57
2018-06-23T12:45:51.002Z,11.56
2018-06-23T12:46:51.252Z,11.49
2018-06-23T12:47:51.246Z,11.39
2018-06-23T12:48:50.978Z,11.42
2018-06-23T12:49:50.973Z,11.39
2018-06-23T12:50:51.216Z,11.35
2018-06-23T12:51:51.209Z,11.43
2018-06-23T12:52:51.199Z,11.49
2018-06-23T12:53:51.193Z,11.45
2018-06-23T12:54:50.929Z,11.49
2018-06-23T12:55:51.170Z,11.45
2018-06-23T12:56:51.176Z,11.45
2018-06-23T12:57:51.160Z,11.42
2018-06-23T12:58:51.152Z,11.35
2018-06-23T12:59:51.142Z,11.41
2018-06-23T13:00:50.874Z,11.34
2018-06-23T13:01:51.122Z,11.31
2018-06-23T13:02:51.116Z,11.31
2018-06-23T13:03:50.857Z,11.3
2018-06-23T13:04:50.946Z,11.31
2018-06-23T13:05:50.832Z,11.27
2018-06-23T13:06:50.823Z,11.24
2018-06-23T13:07:50.818Z,11.33
2018-06-23T13:08:50.807Z,11.23
2018-06-23T13:09:51.056Z,11.26
2018-06-23T13:10:50.533Z,11.3